createdAt,value
2023-04-10T06:17:54.906Z,36.1
2023-04-10T06:23:49.125Z,36.1
2023-04-10T06:29:41.035Z,36
2023-04-10T06:35:36.085Z,35.9
2023-04-10T06:41:29.197Z,35.9
2023-04-10T06:47:04.676Z,35.8
2023-04-10T06:52:56.595Z,44.4
2023-04-10T07:01:16.082Z,50.4
2023-04-10T07:07:07.250Z,46.8
2023-04-10T07:12:43.949Z,45.3
2023-04-10T07:18:36.848Z,44.1
2023-04-10T07:24:12.942Z,43.1
2023-04-10T07:30:04.664Z,42.3
2023-04-10T07:35:58.075Z,41.6
2023-04-10T07:41:48.689Z,41.1
2023-04-10T07:47:40.873Z,40.6
2023-04-10T07:53:17.655Z,40.1
2023-04-10T07:59:08.752Z,39.5
2023-04-10T08:04:31.273Z,39
2023-04-10T08:10:08.358Z,38.6
2023-04-10T08:15:59.068Z,38.1
2023-04-10T08:21:50.855Z,37.5
2023-04-10T08:27:51.423Z,37.1
2023-04-10T08:33:43.356Z,36.8
2023-04-10T08:39:51.248Z,36.4
2023-04-10T08:45:42.912Z,36.1
2023-04-10T08:51:36.357Z,35.9
2023-04-10T08:57:27.825Z,35.6
2023-04-10T09:12:21.253Z,47
2023-04-10T09:18:14.194Z,44.8
2023-04-10T09:24:09.661Z,43.1
2023-04-10T09:30:03.483Z,42.1
2023-04-10T09:35:55.927Z,41.1
2023-04-10T09:41:47.470Z,46.1
2023-04-10T09:47:37.878Z,49.8
2023-04-10T09:53:29.692Z,47
2023-04-10T09:59:21.219Z,44.5
2023-04-10T10:05:13.574Z,44.3
2023-04-10T10:11:08.015Z,44.2
2023-04-10T10:16:59.692Z,41.8
2023-04-10T10:22:51.793Z,39.8
2023-04-10T10:28:43.473Z,38.3
2023-04-10T10:34:49.748Z,36.9
2023-04-10T10:40:27.121Z,35.9
2023-04-10T10:46:20.901Z,34.9
2023-04-10T10:51:57.124Z,37.4
2023-04-10T10:58:03.544Z,43.7
2023-04-10T11:03:59.261Z,41
2023-04-10T11:09:51.484Z,47.2
2023-04-10T11:15:44.833Z,47.1
2023-04-10T11:21:53.143Z,47.9
2023-04-10T11:27:29.382Z,48
2023-04-10T11:33:21.182Z,48.1
2023-04-10T11:39:15.813Z,48.7
2023-04-10T11:45:07.790Z,49.4
2023-04-10T11:50:59.476Z,49.9
2023-04-10T11:56:36.690Z,50.8
2023-04-10T12:02:32.150Z,50.8
2023-04-10T12:08:25.182Z,49.9
2023-04-10T12:14:17.647Z,49
2023-04-10T12:20:09.738Z,44.7
2023-04-10T12:26:01.544Z,42.4
2023-04-10T12:31:54.033Z,40.4
2023-04-10T12:37:47.942Z,38.8
2023-04-10T12:43:39.473Z,37.6
2023-04-10T12:49:31.471Z,36.5
2023-04-10T12:55:07.937Z,35.7
2023-04-10T13:00:59.184Z,35
2023-04-10T13:06:38.752Z,34.4
2023-04-10T13:12:30.550Z,33.9
2023-04-10T13:18:22.741Z,33.5
2023-04-10T13:24:16.700Z,33.1
2023-04-10T13:30:08.553Z,32.8
2023-04-10T13:36:00.105Z,32.4
2023-04-10T13:41:51.774Z,32.2
2023-04-10T13:47:45.112Z,31.9
2023-04-10T13:53:42.859Z,31.7
2023-04-10T13:59:19.043Z,31.6
2023-04-10T14:05:12.681Z,38.5
2023-04-10T14:11:03.882Z,31.7
2023-04-10T14:16:55.948Z,30.8
2023-04-10T14:22:48.417Z,30.9
2023-04-10T14:28:51.879Z,31.5
2023-04-10T14:35:05.651Z,31.7
2023-04-10T14:40:26.708Z,31.6
2023-04-10T14:46:17.379Z,31.4
2023-04-10T14:52:10.145Z,31.1
2023-04-10T14:58:01.769Z,30.9
2023-04-10T15:03:41.688Z,30.6
2023-04-10T15:09:34.019Z,30.1
2023-04-10T15:15:25.884Z,28.4
2023-04-10T15:21:17.422Z,27.3
2023-04-10T15:27:19.470Z,26.7
2023-04-10T15:33:11.278Z,26.5
2023-04-10T15:39:03.293Z,26.4
2023-04-10T15:44:39.529Z,26.3
2023-04-10T15:50:43.537Z,26
2023-04-10T15:56:33.904Z,25.3
2023-04-10T16:02:26.199Z,24.8
2023-04-10T16:08:04.897Z,24.3
2023-04-10T16:14:13.045Z,23.9
2023-04-10T16:20:07.270Z,23.6
2023-04-10T16:25:59.732Z,23.4
2023-04-10T16:31:50.587Z,23.1
2023-04-10T16:37:42.084Z,23
2023-04-10T16:43:18.869Z,22.8
2023-04-10T16:49:10.812Z,22.7
2023-04-10T16:54:47.097Z,22.6
2023-04-10T17:00:38.345Z,22.4
2023-04-10T17:06:30.919Z,22.3
2023-04-10T17:12:21.759Z,22.2
2023-04-10T17:18:13.615Z,22.1
2023-04-10T17:24:04.927Z,22.1
2023-04-10T17:29:57.238Z,22
2023-04-10T17:35:49.633Z,21.9
2023-04-10T17:41:26.222Z,21.8
2023-04-10T17:47:02.497Z,21.8
2023-04-10T17:52:55.948Z,21.7
2023-04-10T17:58:47.333Z,21.6
2023-04-10T18:04:39.836Z,21.6
2023-04-10T18:10:16.629Z,21.6
2023-04-10T18:15:52.772Z,21.5
2023-04-10T18:21:44.848Z,21.4
2023-04-10T18:27:36.211Z,21.4
2023-04-10T18:34:00.187Z,21.4
2023-04-10T18:40:06.477Z,21.2
2023-04-10T18:45:59.722Z,20.9
2023-04-10T18:52:07.622Z,20.7
2023-04-10T18:57:43.648Z,20.5
2023-04-10T19:03:21.692Z,20.4
2023-04-10T19:09:25.137Z,20.3
2023-04-10T19:15:17.403Z,20.1
2023-04-10T19:21:39.810Z,20.1
2023-04-10T19:27:31.239Z,20.2
2023-04-10T19:33:24.373Z,20.4
2023-04-10T19:39:01.223Z,21
2023-04-10T19:44:53.977Z,21.6
2023-04-10T19:50:46.155Z,22.4
2023-04-10T19:56:41.567Z,23
2023-04-10T20:02:53.155Z,23.8
2023-04-10T20:08:46.560Z,24.4
2023-04-10T20:14:37.737Z,25.2
2023-04-10T20:20:13.908Z,25.8
2023-04-10T20:26:05.692Z,26.2
2023-04-10T20:31:41.498Z,26.5
2023-04-10T20:37:17.509Z,26.7
2023-04-10T20:43:08.892Z,26.8
2023-04-10T20:48:44.944Z,26.9
2023-04-10T20:54:35.511Z,27
2023-04-10T21:00:38.342Z,27
2023-04-10T21:06:31.426Z,27
2023-04-10T21:12:21.970Z,27
2023-04-10T21:17:42.979Z,27
2023-04-10T21:23:34.872Z,27
2023-04-10T21:29:25.322Z,27.1
2023-04-10T21:35:17.237Z,27.1
2023-04-10T21:40:53.530Z,27.1
2023-04-10T21:46:28.998Z,27
2023-04-10T21:52:05.239Z,27
2023-04-10T21:57:40.674Z,27
2023-04-10T22:03:17.665Z,27
2023-04-10T22:08:51.457Z,27
2023-04-10T22:14:48.465Z,27
2023-04-10T22:20:23.999Z,26.9
2023-04-10T22:26:01.248Z,26.9
2023-04-10T22:31:44.323Z,26.9
2023-04-10T22:37:20.019Z,26.9
2023-04-10T22:42:55.867Z,26.9
2023-04-10T22:48:15.989Z,26.9
2023-04-10T22:53:52.011Z,26.9
2023-04-10T22:58:57.442Z,26.8
2023-04-10T23:04:03.258Z,26.8
2023-04-10T23:09:40.195Z,26.8
2023-04-10T23:15:31.663Z,26.8
2023-04-10T23:21:24.132Z,26.8
2023-04-10T23:27:15.801Z,26.8
2023-04-10T23:33:07.722Z,26.8
2023-04-10T23:38:59.268Z,26.7
2023-04-10T23:44:35.161Z,26.7
2023-04-10T23:50:26.894Z,26.7
2023-04-10T23:56:20.025Z,26.6
